sensor_id;sensor_type;location;lat;lon;timestamp;temperature;humidity
54540;SHT30;40438;52.992;18.604;2023-07-28T00:01:59;18.43;60.92
54540;SHT30;40438;52.992;18.604;2023-07-28T00:04:25;18.40;60.55
54540;SHT30;40438;52.992;18.604;2023-07-28T00:06:51;18.42;60.19
54540;SHT30;40438;52.992;18.604;2023-07-28T00:09:17;18.39;60.10
54540;SHT30;40438;52.992;18.604;2023-07-28T00:11:44;18.39;60.12
54540;SHT30;40438;52.992;18.604;2023-07-28T00:14:10;18.34;60.01
54540;SHT30;40438;52.992;18.604;2023-07-28T00:16:35;18.36;60.21
54540;SHT30;40438;52.992;18.604;2023-07-28T00:19:01;18.30;60.24
54540;SHT30;40438;52.992;18.604;2023-07-28T00:21:27;18.29;60.36
54540;SHT30;40438;52.992;18.604;2023-07-28T00:23:53;18.25;60.63
54540;SHT30;40438;52.992;18.604;2023-07-28T00:26:18;18.15;60.39
54540;SHT30;40438;52.992;18.604;2023-07-28T00:28:46;18.17;60.53
54540;SHT30;40438;52.992;18.604;2023-07-28T00:31:13;18.12;60.51
54540;SHT30;40438;52.992;18.604;2023-07-28T00:33:39;18.10;60.71
54540;SHT30;40438;52.992;18.604;2023-07-28T00:36:04;18.12;60.72
54540;SHT30;40438;52.992;18.604;2023-07-28T00:38:31;18.09;60.96
54540;SHT30;40438;52.992;18.604;2023-07-28T00:40:57;18.06;61.00
54540;SHT30;40438;52.992;18.604;2023-07-28T00:43:24;18.02;61.20
54540;SHT30;40438;52.992;18.604;2023-07-28T00:45:51;18.05;61.05
54540;SHT30;40438;52.992;18.604;2023-07-28T00:48:18;18.06;61.16
54540;SHT30;40438;52.992;18.604;2023-07-28T00:50:45;18.06;61.34
54540;SHT30;40438;52.992;18.604;2023-07-28T00:53:12;18.08;61.41
54540;SHT30;40438;52.992;18.604;2023-07-28T00:55:37;18.06;61.44
54540;SHT30;40438;52.992;18.604;2023-07-28T00:58:03;18.04;61.78
54540;SHT30;40438;52.992;18.604;2023-07-28T01:00:29;18.01;61.78
54540;SHT30;40438;52.992;18.604;2023-07-28T01:02:57;17.99;61.91
54540;SHT30;40438;52.992;18.604;2023-07-28T01:05:27;18.01;62.00
54540;SHT30;40438;52.992;18.604;2023-07-28T01:07:58;17.99;62.25
54540;SHT30;40438;52.992;18.604;2023-07-28T01:10:28;18.01;62.05
54540;SHT30;40438;52.992;18.604;2023-07-28T01:12:55;18.02;62.12
54540;SHT30;40438;52.992;18.604;2023-07-28T01:15:21;18.02;62.12
54540;SHT30;40438;52.992;18.604;2023-07-28T01:17:47;18.04;62.25
54540;SHT30;40438;52.992;18.604;2023-07-28T01:20:14;17.99;62.35
54540;SHT30;40438;52.992;18.604;2023-07-28T01:22:47;17.98;62.40
54540;SHT30;40438;52.992;18.604;2023-07-28T01:25:18;17.99;62.30
54540;SHT30;40438;52.992;18.604;2023-07-28T01:27:48;17.95;62.39
54540;SHT30;40438;52.992;18.604;2023-07-28T01:30:15;17.92;62.56
54540;SHT30;40438;52.992;18.604;2023-07-28T01:32:41;17.89;62.59
54540;SHT30;40438;52.992;18.604;2023-07-28T01:35:08;17.86;62.86
54540;SHT30;40438;52.992;18.604;2023-07-28T01:37:34;17.81;63.05
54540;SHT30;40438;52.992;18.604;2023-07-28T01:40:00;17.78;63.45
54540;SHT30;40438;52.992;18.604;2023-07-28T01:42:25;17.78;63.55
54540;SHT30;40438;52.992;18.604;2023-07-28T01:44:53;17.73;63.95
54540;SHT30;40438;52.992;18.604;2023-07-28T01:47:18;17.68;64.23
54540;SHT30;40438;52.992;18.604;2023-07-28T01:49:44;17.67;64.39
54540;SHT30;40438;52.992;18.604;2023-07-28T01:52:10;17.65;64.58
54540;SHT30;40438;52.992;18.604;2023-07-28T01:54:36;17.63;64.92
54540;SHT30;40438;52.992;18.604;2023-07-28T01:57:01;17.63;65.12
54540;SHT30;40438;52.992;18.604;2023-07-28T01:59:27;17.65;65.90
54540;SHT30;40438;52.992;18.604;2023-07-28T02:01:54;17.68;66.04
54540;SHT30;40438;52.992;18.604;2023-07-28T02:04:20;17.70;66.44
54540;SHT30;40438;52.992;18.604;2023-07-28T02:06:46;17.65;66.99
54540;SHT30;40438;52.992;18.604;2023-07-28T02:09:12;17.60;67.64
54540;SHT30;40438;52.992;18.604;2023-07-28T02:11:37;17.58;68.10
54540;SHT30;40438;52.992;18.604;2023-07-28T02:14:03;17.54;68.58
54540;SHT30;40438;52.992;18.604;2023-07-28T02:16:29;17.51;69.28
54540;SHT30;40438;52.992;18.604;2023-07-28T02:18:56;17.47;69.40
54540;SHT30;40438;52.992;18.604;2023-07-28T02:21:22;17.48;69.60
54540;SHT30;40438;52.992;18.604;2023-07-28T02:23:48;17.47;70.29
54540;SHT30;40438;52.992;18.604;2023-07-28T02:26:14;17.41;70.49
54540;SHT30;40438;52.992;18.604;2023-07-28T02:28:40;17.38;70.66
54540;SHT30;40438;52.992;18.604;2023-07-28T02:31:05;17.31;71.20
54540;SHT30;40438;52.992;18.604;2023-07-28T02:33:31;17.28;71.81
54540;SHT30;40438;52.992;18.604;2023-07-28T02:35:58;17.23;71.87
54540;SHT30;40438;52.992;18.604;2023-07-28T02:38:24;17.23;72.38
54540;SHT30;40438;52.992;18.604;2023-07-28T02:40:50;17.22;72.73
54540;SHT30;40438;52.992;18.604;2023-07-28T02:43:16;17.17;73.05
54540;SHT30;40438;52.992;18.604;2023-07-28T02:45:41;17.20;73.41
54540;SHT30;40438;52.992;18.604;2023-07-28T02:48:07;17.17;73.80
54540;SHT30;40438;52.992;18.604;2023-07-28T02:50:34;17.17;74.37
54540;SHT30;40438;52.992;18.604;2023-07-28T02:53:01;17.17;74.45
54540;SHT30;40438;52.992;18.604;2023-07-28T02:55:27;17.15;74.60
54540;SHT30;40438;52.992;18.604;2023-07-28T02:57:53;17.15;75.06
54540;SHT30;40438;52.992;18.604;2023-07-28T03:00:19;17.13;74.97
54540;SHT30;40438;52.992;18.604;2023-07-28T03:02:45;17.16;74.95
54540;SHT30;40438;52.992;18.604;2023-07-28T03:05:11;17.16;74.87
54540;SHT30;40438;52.992;18.604;2023-07-28T03:07:39;17.17;75.21
54540;SHT30;40438;52.992;18.604;2023-07-28T03:10:09;17.15;75.03
54540;SHT30;40438;52.992;18.604;2023-07-28T03:12:36;17.10;74.57
54540;SHT30;40438;52.992;18.604;2023-07-28T03:15:03;17.12;74.31
54540;SHT30;40438;52.992;18.604;2023-07-28T03:17:29;17.13;74.06
54540;SHT30;40438;52.992;18.604;2023-07-28T03:19:55;17.16;74.09
54540;SHT30;40438;52.992;18.604;2023-07-28T03:22:20;17.15;74.38
54540;SHT30;40438;52.992;18.604;2023-07-28T03:24:46;17.09;74.26
54540;SHT30;40438;52.992;18.604;2023-07-28T03:27:13;17.07;73.98
54540;SHT30;40438;52.992;18.604;2023-07-28T03:29:39;17.09;74.23
54540;SHT30;40438;52.992;18.604;2023-07-28T03:32:06;17.06;74.35
54540;SHT30;40438;52.992;18.604;2023-07-28T03:34:31;17.10;74.19
54540;SHT30;40438;52.992;18.604;2023-07-28T03:36:59;17.12;74.32
54540;SHT30;40438;52.992;18.604;2023-07-28T03:39:25;17.05;74.11
54540;SHT30;40438;52.992;18.604;2023-07-28T03:41:51;17.00;74.66
54540;SHT30;40438;52.992;18.604;2023-07-28T03:44:18;17.09;74.20
54540;SHT30;40438;52.992;18.604;2023-07-28T03:46:44;17.10;74.33
54540;SHT30;40438;52.992;18.604;2023-07-28T03:49:10;17.15;74.11
54540;SHT30;40438;52.992;18.604;2023-07-28T03:51:36;17.13;74.07
54540;SHT30;40438;52.992;18.604;2023-07-28T03:54:01;17.09;74.26
54540;SHT30;40438;52.992;18.604;2023-07-28T03:56:27;17.05;74.21
54540;SHT30;40438;52.992;18.604;2023-07-28T03:58:53;17.12;74.32
54540;SHT30;40438;52.992;18.604;2023-07-28T04:01:20;17.10;74.38
54540;SHT30;40438;52.992;18.604;2023-07-28T04:03:46;17.15;74.28
54540;SHT30;40438;52.992;18.604;2023-07-28T04:06:12;17.19;74.09
54540;SHT30;40438;52.992;18.604;2023-07-28T04:08:38;17.17;74.15
54540;SHT30;40438;52.992;18.604;2023-07-28T04:11:04;17.19;74.30
54540;SHT30;40438;52.992;18.604;2023-07-28T04:13:29;17.19;74.26
54540;SHT30;40438;52.992;18.604;2023-07-28T04:15:55;17.22;73.93
54540;SHT30;40438;52.992;18.604;2023-07-28T04:18:23;17.20;73.55
54540;SHT30;40438;52.992;18.604;2023-07-28T04:20:49;17.17;73.74
54540;SHT30;40438;52.992;18.604;2023-07-28T04:23:15;17.10;74.41
54540;SHT30;40438;52.992;18.604;2023-07-28T04:25:40;17.10;74.27
54540;SHT30;40438;52.992;18.604;2023-07-28T04:28:06;17.17;74.20
54540;SHT30;40438;52.992;18.604;2023-07-28T04:30:32;17.15;74.23
54540;SHT30;40438;52.992;18.604;2023-07-28T04:32:58;17.12;74.29
54540;SHT30;40438;52.992;18.604;2023-07-28T04:35:33;17.12;74.47
54540;SHT30;40438;52.992;18.604;2023-07-28T04:38:19;17.15;74.92
54540;SHT30;40438;52.992;18.604;2023-07-28T04:40:54;17.12;74.81
54540;SHT30;40438;52.992;18.604;2023-07-28T04:43:25;17.15;75.02
54540;SHT30;40438;52.992;18.604;2023-07-28T04:45:54;17.10;75.26
54540;SHT30;40438;52.992;18.604;2023-07-28T04:48:22;17.13;75.36
54540;SHT30;40438;52.992;18.604;2023-07-28T04:50:50;17.12;75.74
54540;SHT30;40438;52.992;18.604;2023-07-28T04:53:36;17.10;76.07
54540;SHT30;40438;52.992;18.604;2023-07-28T04:56:09;17.16;76.45
54540;SHT30;40438;52.992;18.604;2023-07-28T04:58:35;17.15;76.97
54540;SHT30;40438;52.992;18.604;2023-07-28T05:01:01;17.10;77.33
54540;SHT30;40438;52.992;18.604;2023-07-28T05:03:28;17.12;77.53
54540;SHT30;40438;52.992;18.604;2023-07-28T05:05:59;17.02;78.19
54540;SHT30;40438;52.992;18.604;2023-07-28T05:08:25;17.05;78.50
54540;SHT30;40438;52.992;18.604;2023-07-28T05:10:52;17.00;79.01
54540;SHT30;40438;52.992;18.604;2023-07-28T05:13:18;16.96;79.48
54540;SHT30;40438;52.992;18.604;2023-07-28T05:15:52;16.86;80.33
54540;SHT30;40438;52.992;18.604;2023-07-28T05:18:35;16.76;80.94
54540;SHT30;40438;52.992;18.604;2023-07-28T05:21:38;16.69;81.43
54540;SHT30;40438;52.992;18.604;2023-07-28T05:24:04;16.67;81.64
54540;SHT30;40438;52.992;18.604;2023-07-28T05:26:31;16.65;82.33
54540;SHT30;40438;52.992;18.604;2023-07-28T05:28:57;16.67;82.39
54540;SHT30;40438;52.992;18.604;2023-07-28T05:31:24;16.69;82.29
54540;SHT30;40438;52.992;18.604;2023-07-28T05:33:49;16.65;83.29
54540;SHT30;40438;52.992;18.604;2023-07-28T05:36:15;16.61;83.38
54540;SHT30;40438;52.992;18.604;2023-07-28T05:38:42;16.55;83.65
54540;SHT30;40438;52.992;18.604;2023-07-28T05:41:08;16.57;83.72
54540;SHT30;40438;52.992;18.604;2023-07-28T05:43:34;16.57;84.36
54540;SHT30;40438;52.992;18.604;2023-07-28T05:46:01;16.58;84.35
54540;SHT30;40438;52.992;18.604;2023-07-28T05:48:30;16.59;84.71
54540;SHT30;40438;52.992;18.604;2023-07-28T05:50:56;16.58;84.69
54540;SHT30;40438;52.992;18.604;2023-07-28T05:53:22;16.61;84.59
54540;SHT30;40438;52.992;18.604;2023-07-28T05:55:52;16.58;84.68
54540;SHT30;40438;52.992;18.604;2023-07-28T05:58:18;16.59;84.68
54540;SHT30;40438;52.992;18.604;2023-07-28T06:00:44;16.65;84.63
54540;SHT30;40438;52.992;18.604;2023-07-28T06:03:25;16.68;84.81
54540;SHT30;40438;52.992;18.604;2023-07-28T06:06:02;16.62;85.13
54540;SHT30;40438;52.992;18.604;2023-07-28T06:08:28;16.65;85.38
54540;SHT30;40438;52.992;18.604;2023-07-28T06:10:56;16.73;85.08
54540;SHT30;40438;52.992;18.604;2023-07-28T06:13:22;16.71;85.08
54540;SHT30;40438;52.992;18.604;2023-07-28T06:15:47;16.73;85.38
54540;SHT30;40438;52.992;18.604;2023-07-28T06:18:13;16.76;85.24
54540;SHT30;40438;52.992;18.604;2023-07-28T06:20:41;16.78;85.24
54540;SHT30;40438;52.992;18.604;2023-07-28T06:23:07;16.82;85.39
54540;SHT30;40438;52.992;18.604;2023-07-28T06:25:33;16.84;85.32
54540;SHT30;40438;52.992;18.604;2023-07-28T06:28:06;16.72;85.54
54540;SHT30;40438;52.992;18.604;2023-07-28T06:30:32;16.69;85.78
54540;SHT30;40438;52.992;18.604;2023-07-28T06:32:58;16.73;85.81
54540;SHT30;40438;52.992;18.604;2023-07-28T06:35:23;16.72;86.39
54540;SHT30;40438;52.992;18.604;2023-07-28T06:37:49;16.71;86.32
54540;SHT30;40438;52.992;18.604;2023-07-28T06:40:15;16.67;86.79
54540;SHT30;40438;52.992;18.604;2023-07-28T06:42:41;16.65;86.84
54540;SHT30;40438;52.992;18.604;2023-07-28T06:45:09;16.62;86.93
54540;SHT30;40438;52.992;18.604;2023-07-28T06:47:35;16.69;86.63
54540;SHT30;40438;52.992;18.604;2023-07-28T06:50:01;16.57;86.56
54540;SHT30;40438;52.992;18.604;2023-07-28T06:52:27;16.54;86.79
54540;SHT30;40438;52.992;18.604;2023-07-28T06:54:52;16.52;87.22
54540;SHT30;40438;52.992;18.604;2023-07-28T06:57:18;16.49;87.48
54540;SHT30;40438;52.992;18.604;2023-07-28T06:59:46;16.51;87.35
54540;SHT30;40438;52.992;18.604;2023-07-28T07:02:13;16.48;87.63
54540;SHT30;40438;52.992;18.604;2023-07-28T07:04:39;16.44;87.91
54540;SHT30;40438;52.992;18.604;2023-07-28T07:07:05;16.51;88.14
54540;SHT30;40438;52.992;18.604;2023-07-28T07:09:31;16.52;88.04
54540;SHT30;40438;52.992;18.604;2023-07-28T07:11:57;16.47;87.96
54540;SHT30;40438;52.992;18.604;2023-07-28T07:14:23;16.45;88.58
54540;SHT30;40438;52.992;18.604;2023-07-28T07:16:48;16.41;88.73
54540;SHT30;40438;52.992;18.604;2023-07-28T07:19:16;16.41;88.70
54540;SHT30;40438;52.992;18.604;2023-07-28T07:21:41;16.45;88.89
54540;SHT30;40438;52.992;18.604;2023-07-28T07:24:07;16.52;89.20
54540;SHT30;40438;52.992;18.604;2023-07-28T07:26:33;16.58;89.16
54540;SHT30;40438;52.992;18.604;2023-07-28T07:28:59;16.62;89.15
54540;SHT30;40438;52.992;18.604;2023-07-28T07:31:25;16.71;89.03
54540;SHT30;40438;52.992;18.604;2023-07-28T07:33:50;16.75;88.69
54540;SHT30;40438;52.992;18.604;2023-07-28T07:36:19;16.78;88.53
54540;SHT30;40438;52.992;18.604;2023-07-28T07:38:45;16.80;88.47
54540;SHT30;40438;52.992;18.604;2023-07-28T07:41:11;16.84;88.53
54540;SHT30;40438;52.992;18.604;2023-07-28T07:43:37;16.82;88.55
54540;SHT30;40438;52.992;18.604;2023-07-28T07:46:02;16.84;88.43
54540;SHT30;40438;52.992;18.604;2023-07-28T07:48:28;16.85;88.53
54540;SHT30;40438;52.992;18.604;2023-07-28T07:50:54;16.85;88.58
54540;SHT30;40438;52.992;18.604;2023-07-28T07:53:21;16.91;88.87
54540;SHT30;40438;52.992;18.604;2023-07-28T07:55:48;16.94;88.83
54540;SHT30;40438;52.992;18.604;2023-07-28T07:58:14;16.92;89.08
54540;SHT30;40438;52.992;18.604;2023-07-28T08:00:40;16.88;89.03
54540;SHT30;40438;52.992;18.604;2023-07-28T08:03:06;16.94;89.27
54540;SHT30;40438;52.992;18.604;2023-07-28T08:05:32;16.95;88.93
54540;SHT30;40438;52.992;18.604;2023-07-28T08:07:57;16.95;89.29
54540;SHT30;40438;52.992;18.604;2023-07-28T08:10:25;16.99;89.53
54540;SHT30;40438;52.992;18.604;2023-07-28T08:12:50;16.99;89.19
54540;SHT30;40438;52.992;18.604;2023-07-28T08:15:16;16.98;89.25
54540;SHT30;40438;52.992;18.604;2023-07-28T08:17:42;17.02;89.51
54540;SHT30;40438;52.992;18.604;2023-07-28T08:20:08;17.00;89.35
54540;SHT30;40438;52.992;18.604;2023-07-28T08:22:34;17.06;89.40
54540;SHT30;40438;52.992;18.604;2023-07-28T08:25:00;17.12;89.36
54540;SHT30;40438;52.992;18.604;2023-07-28T08:27:27;17.09;89.26
54540;SHT30;40438;52.992;18.604;2023-07-28T08:29:53;17.13;89.47
54540;SHT30;40438;52.992;18.604;2023-07-28T08:32:18;17.17;89.16
54540;SHT30;40438;52.992;18.604;2023-07-28T08:34:44;17.17;89.17
54540;SHT30;40438;52.992;18.604;2023-07-28T08:37:10;17.22;89.39
54540;SHT30;40438;52.992;18.604;2023-07-28T08:39:36;17.22;89.83
54540;SHT30;40438;52.992;18.604;2023-07-28T08:42:02;17.28;89.42
54540;SHT30;40438;52.992;18.604;2023-07-28T08:44:32;17.27;89.53
54540;SHT30;40438;52.992;18.604;2023-07-28T08:47:00;17.36;89.77
54540;SHT30;40438;52.992;18.604;2023-07-28T08:49:26;17.41;89.93
54540;SHT30;40438;52.992;18.604;2023-07-28T08:51:52;17.43;89.36
54540;SHT30;40438;52.992;18.604;2023-07-28T08:54:18;17.43;89.62
54540;SHT30;40438;52.992;18.604;2023-07-28T08:56:44;17.40;89.78
54540;SHT30;40438;52.992;18.604;2023-07-28T08:59:10;17.41;90.09
54540;SHT30;40438;52.992;18.604;2023-07-28T09:01:40;17.43;90.20
54540;SHT30;40438;52.992;18.604;2023-07-28T09:04:09;17.51;89.99
54540;SHT30;40438;52.992;18.604;2023-07-28T09:06:35;17.53;89.78
54540;SHT30;40438;52.992;18.604;2023-07-28T09:09:01;17.50;90.05
54540;SHT30;40438;52.992;18.604;2023-07-28T09:11:27;17.51;90.05
54540;SHT30;40438;52.992;18.604;2023-07-28T09:13:54;17.60;90.15
54540;SHT30;40438;52.992;18.604;2023-07-28T09:16:20;17.65;90.25
54540;SHT30;40438;52.992;18.604;2023-07-28T09:18:48;17.74;90.10
54540;SHT30;40438;52.992;18.604;2023-07-28T09:21:17;17.82;89.74
54540;SHT30;40438;52.992;18.604;2023-07-28T09:23:44;17.86;89.59
54540;SHT30;40438;52.992;18.604;2023-07-28T09:26:09;17.95;89.59
54540;SHT30;40438;52.992;18.604;2023-07-28T09:28:37;18.05;89.61
54540;SHT30;40438;52.992;18.604;2023-07-28T09:31:04;18.08;89.35
54540;SHT30;40438;52.992;18.604;2023-07-28T09:33:30;18.16;89.13
54540;SHT30;40438;52.992;18.604;2023-07-28T09:36:06;18.19;88.37
54540;SHT30;40438;52.992;18.604;2023-07-28T09:38:33;18.19;88.77
54540;SHT30;40438;52.992;18.604;2023-07-28T09:41:00;18.25;88.73
54540;SHT30;40438;52.992;18.604;2023-07-28T09:43:26;18.33;88.80
54540;SHT30;40438;52.992;18.604;2023-07-28T09:45:53;18.36;88.86
54540;SHT30;40438;52.992;18.604;2023-07-28T09:48:19;18.42;88.12
54540;SHT30;40438;52.992;18.604;2023-07-28T09:50:45;18.50;88.55
54540;SHT30;40438;52.992;18.604;2023-07-28T09:53:13;18.56;87.60
54540;SHT30;40438;52.992;18.604;2023-07-28T09:55:40;18.61;87.37
54540;SHT30;40438;52.992;18.604;2023-07-28T09:58:09;18.68;87.79
54540;SHT30;40438;52.992;18.604;2023-07-28T10:00:35;18.73;87.59
54540;SHT30;40438;52.992;18.604;2023-07-28T10:03:02;18.77;87.56
54540;SHT30;40438;52.992;18.604;2023-07-28T10:05:29;18.77;87.41
54540;SHT30;40438;52.992;18.604;2023-07-28T10:07:56;18.74;87.48
54540;SHT30;40438;52.992;18.604;2023-07-28T10:10:23;18.77;87.71
54540;SHT30;40438;52.992;18.604;2023-07-28T10:12:50;18.75;88.20
54540;SHT30;40438;52.992;18.604;2023-07-28T10:15:17;18.78;88.20
54540;SHT30;40438;52.992;18.604;2023-07-28T10:17:45;18.74;88.42
54540;SHT30;40438;52.992;18.604;2023-07-28T10:20:33;18.77;88.61
54540;SHT30;40438;52.992;18.604;2023-07-28T10:23:03;18.78;88.81
54540;SHT30;40438;52.992;18.604;2023-07-28T10:25:34;18.81;89.03
54540;SHT30;40438;52.992;18.604;2023-07-28T10:28:00;18.85;88.93
54540;SHT30;40438;52.992;18.604;2023-07-28T10:30:26;18.85;89.18
54540;SHT30;40438;52.992;18.604;2023-07-28T10:32:54;19.01;89.21
54540;SHT30;40438;52.992;18.604;2023-07-28T10:35:25;19.12;88.78
54540;SHT30;40438;52.992;18.604;2023-07-28T10:37:51;19.14;88.38
54540;SHT30;40438;52.992;18.604;2023-07-28T10:40:27;19.19;88.71
54540;SHT30;40438;52.992;18.604;2023-07-28T10:42:55;19.16;88.61
54540;SHT30;40438;52.992;18.604;2023-07-28T10:45:22;19.22;88.72
54540;SHT30;40438;52.992;18.604;2023-07-28T10:47:48;19.32;88.75
54540;SHT30;40438;52.992;18.604;2023-07-28T10:50:15;19.42;88.75
54540;SHT30;40438;52.992;18.604;2023-07-28T10:52:41;19.53;87.76
54540;SHT30;40438;52.992;18.604;2023-07-28T10:55:12;19.69;87.50
54540;SHT30;40438;52.992;18.604;2023-07-28T10:57:38;19.78;87.35
54540;SHT30;40438;52.992;18.604;2023-07-28T11:00:06;19.96;86.54
54540;SHT30;40438;52.992;18.604;2023-07-28T11:02:32;20.15;85.08
54540;SHT30;40438;52.992;18.604;2023-07-28T11:04:58;20.21;84.71
54540;SHT30;40438;52.992;18.604;2023-07-28T11:07:24;20.38;84.06
54540;SHT30;40438;52.992;18.604;2023-07-28T11:09:50;20.33;83.91
54540;SHT30;40438;52.992;18.604;2023-07-28T11:12:17;20.35;85.06
54540;SHT30;40438;52.992;18.604;2023-07-28T11:14:43;20.45;84.37
54540;SHT30;40438;52.992;18.604;2023-07-28T11:17:10;20.43;84.24
54540;SHT30;40438;52.992;18.604;2023-07-28T11:19:36;20.42;83.99
54540;SHT30;40438;52.992;18.604;2023-07-28T11:22:01;20.52;83.91
54540;SHT30;40438;52.992;18.604;2023-07-28T11:24:27;20.43;83.17
54540;SHT30;40438;52.992;18.604;2023-07-28T11:26:54;20.36;83.87
54540;SHT30;40438;52.992;18.604;2023-07-28T11:29:20;20.42;83.72
54540;SHT30;40438;52.992;18.604;2023-07-28T11:31:47;20.43;83.28
54540;SHT30;40438;52.992;18.604;2023-07-28T11:34:15;20.52;83.90
54540;SHT30;40438;52.992;18.604;2023-07-28T11:36:41;20.68;83.35
54540;SHT30;40438;52.992;18.604;2023-07-28T11:39:07;20.66;84.00
54540;SHT30;40438;52.992;18.604;2023-07-28T11:41:34;20.75;82.94
54540;SHT30;40438;52.992;18.604;2023-07-28T11:44:00;20.90;81.88
54540;SHT30;40438;52.992;18.604;2023-07-28T11:46:34;21.03;82.10
54540;SHT30;40438;52.992;18.604;2023-07-28T11:49:08;21.51;81.16
54540;SHT30;40438;52.992;18.604;2023-07-28T11:51:38;21.79;80.06
54540;SHT30;40438;52.992;18.604;2023-07-28T11:54:04;21.85;78.79
54540;SHT30;40438;52.992;18.604;2023-07-28T11:56:31;21.89;78.19
54540;SHT30;40438;52.992;18.604;2023-07-28T11:58:58;21.72;79.15
54540;SHT30;40438;52.992;18.604;2023-07-28T12:01:24;21.58;79.57
54540;SHT30;40438;52.992;18.604;2023-07-28T12:03:49;21.45;80.42
54540;SHT30;40438;52.992;18.604;2023-07-28T12:06:15;21.24;80.57
54540;SHT30;40438;52.992;18.604;2023-07-28T12:08:42;21.28;80.79
54540;SHT30;40438;52.992;18.604;2023-07-28T12:11:11;21.14;81.72
54540;SHT30;40438;52.992;18.604;2023-07-28T12:13:47;21.08;81.60
54540;SHT30;40438;52.992;18.604;2023-07-28T12:16:31;21.00;81.18
54540;SHT30;40438;52.992;18.604;2023-07-28T12:18:58;21.00;81.61
54540;SHT30;40438;52.992;18.604;2023-07-28T12:21:23;21.14;81.54
54540;SHT30;40438;52.992;18.604;2023-07-28T12:23:50;21.21;81.51
54540;SHT30;40438;52.992;18.604;2023-07-28T12:26:16;21.58;81.81
54540;SHT30;40438;52.992;18.604;2023-07-28T12:28:42;21.82;80.94
54540;SHT30;40438;52.992;18.604;2023-07-28T12:31:08;21.93;81.07
54540;SHT30;40438;52.992;18.604;2023-07-28T12:33:33;21.98;79.96
54540;SHT30;40438;52.992;18.604;2023-07-28T12:35:59;22.06;79.24
54540;SHT30;40438;52.992;18.604;2023-07-28T12:38:25;21.86;78.77
54540;SHT30;40438;52.992;18.604;2023-07-28T12:40:52;21.86;78.91
54540;SHT30;40438;52.992;18.604;2023-07-28T12:43:18;21.75;79.54
54540;SHT30;40438;52.992;18.604;2023-07-28T12:45:46;21.68;79.82
54540;SHT30;40438;52.992;18.604;2023-07-28T12:48:12;21.80;80.06
54540;SHT30;40438;52.992;18.604;2023-07-28T12:50:38;21.85;80.47
54540;SHT30;40438;52.992;18.604;2023-07-28T12:53:04;21.79;80.42
54540;SHT30;40438;52.992;18.604;2023-07-28T12:55:29;21.75;79.84
54540;SHT30;40438;52.992;18.604;2023-07-28T12:57:56;21.76;79.54
54540;SHT30;40438;52.992;18.604;2023-07-28T13:00:22;21.71;79.07
54540;SHT30;40438;52.992;18.604;2023-07-28T13:02:48;21.63;79.10
54540;SHT30;40438;52.992;18.604;2023-07-28T13:05:14;21.61;79.40
54540;SHT30;40438;52.992;18.604;2023-07-28T13:07:40;21.58;80.26
54540;SHT30;40438;52.992;18.604;2023-07-28T13:10:07;21.58;80.55
54540;SHT30;40438;52.992;18.604;2023-07-28T13:12:34;21.51;81.81
54540;SHT30;40438;52.992;18.604;2023-07-28T13:15:01;21.40;82.51
54540;SHT30;40438;52.992;18.604;2023-07-28T13:17:27;21.40;82.99
54540;SHT30;40438;52.992;18.604;2023-07-28T13:19:53;21.28;83.62
54540;SHT30;40438;52.992;18.604;2023-07-28T13:22:19;21.14;83.11
54540;SHT30;40438;52.992;18.604;2023-07-28T13:24:44;21.27;83.45
54540;SHT30;40438;52.992;18.604;2023-07-28T13:27:10;21.41;84.01
54540;SHT30;40438;52.992;18.604;2023-07-28T13:29:36;21.72;83.02
54540;SHT30;40438;52.992;18.604;2023-07-28T13:32:04;21.95;82.70
54540;SHT30;40438;52.992;18.604;2023-07-28T13:34:40;22.36;81.44
54540;SHT30;40438;52.992;18.604;2023-07-28T13:37:05;22.77;79.72
54540;SHT30;40438;52.992;18.604;2023-07-28T13:39:31;23.12;79.51
54540;SHT30;40438;52.992;18.604;2023-07-28T13:41:57;23.61;78.33
54540;SHT30;40438;52.992;18.604;2023-07-28T13:44:23;24.08;75.51
54540;SHT30;40438;52.992;18.604;2023-07-28T13:46:48;24.70;74.24
54540;SHT30;40438;52.992;18.604;2023-07-28T13:49:16;25.00;71.76
54540;SHT30;40438;52.992;18.604;2023-07-28T13:51:41;25.10;70.23
54540;SHT30;40438;52.992;18.604;2023-07-28T13:54:07;25.27;69.78
54540;SHT30;40438;52.992;18.604;2023-07-28T13:56:33;25.61;68.37
54540;SHT30;40438;52.992;18.604;2023-07-28T13:58:59;25.75;68.57
54540;SHT30;40438;52.992;18.604;2023-07-28T14:01:24;25.69;64.54
54540;SHT30;40438;52.992;18.604;2023-07-28T14:03:50;25.46;64.82
54540;SHT30;40438;52.992;18.604;2023-07-28T14:06:17;25.14;67.21
54540;SHT30;40438;52.992;18.604;2023-07-28T14:08:43;24.80;69.56
54540;SHT30;40438;52.992;18.604;2023-07-28T14:11:09;24.48;70.52
54540;SHT30;40438;52.992;18.604;2023-07-28T14:13:35;24.19;72.21
54540;SHT30;40438;52.992;18.604;2023-07-28T14:16:01;23.71;73.36
54540;SHT30;40438;52.992;18.604;2023-07-28T14:18:26;23.45;73.86
54540;SHT30;40438;52.992;18.604;2023-07-28T14:20:52;23.15;75.13
54540;SHT30;40438;52.992;18.604;2023-07-28T14:23:23;22.92;75.96
54540;SHT30;40438;52.992;18.604;2023-07-28T14:25:49;22.95;76.12
54540;SHT30;40438;52.992;18.604;2023-07-28T14:28:15;23.20;76.68
54540;SHT30;40438;52.992;18.604;2023-07-28T14:30:41;23.61;75.86
54540;SHT30;40438;52.992;18.604;2023-07-28T14:33:06;24.12;74.44
54540;SHT30;40438;52.992;18.604;2023-07-28T14:35:32;24.62;72.05
54540;SHT30;40438;52.992;18.604;2023-07-28T14:37:58;25.07;70.25
54540;SHT30;40438;52.992;18.604;2023-07-28T14:40:25;25.62;68.62
54540;SHT30;40438;52.992;18.604;2023-07-28T14:42:52;25.90;66.18
54540;SHT30;40438;52.992;18.604;2023-07-28T14:45:17;25.89;64.86
54540;SHT30;40438;52.992;18.604;2023-07-28T14:47:43;26.14;64.52
54540;SHT30;40438;52.992;18.604;2023-07-28T14:50:10;26.14;64.09
54540;SHT30;40438;52.992;18.604;2023-07-28T14:52:35;25.83;65.85
54540;SHT30;40438;52.992;18.604;2023-07-28T14:55:01;25.52;67.25
54540;SHT30;40438;52.992;18.604;2023-07-28T14:57:28;25.20;65.95
54540;SHT30;40438;52.992;18.604;2023-07-28T14:59:54;24.82;67.73
54540;SHT30;40438;52.992;18.604;2023-07-28T15:02:20;24.51;69.55
54540;SHT30;40438;52.992;18.604;2023-07-28T15:04:46;24.29;70.41
54540;SHT30;40438;52.992;18.604;2023-07-28T15:07:11;23.94;71.83
54540;SHT30;40438;52.992;18.604;2023-07-28T15:09:37;23.70;72.81
54540;SHT30;40438;52.992;18.604;2023-07-28T15:12:04;23.93;72.10
54540;SHT30;40438;52.992;18.604;2023-07-28T15:14:31;24.46;70.72